sensor_id;sensor_type;location;lat;lon;timestamp;P1;durP1;ratioP1;P2;durP2;ratioP2
71236;SDS011;58984;51.960;5.582;2022-08-19T00:01:40;7.15;;;6.40;;
71236;SDS011;58984;51.960;5.582;2022-08-19T00:04:08;7.68;;;5.90;;
71236;SDS011;58984;51.960;5.582;2022-08-19T00:06:37;9.23;;;6.30;;
71236;SDS011;58984;51.960;5.582;2022-08-19T00:09:05;8.70;;;5.97;;
71236;SDS011;58984;51.960;5.582;2022-08-19T00:11:32;9.63;;;6.07;;
71236;SDS011;58984;51.960;5.582;2022-08-19T00:14:02;9.63;;;6.43;;
71236;SDS011;58984;51.960;5.582;2022-08-19T00:16:28;8.40;;;6.35;;
71236;SDS011;58984;51.960;5.582;2022-08-19T00:18:54;6.75;;;5.82;;
71236;SDS011;58984;51.960;5.582;2022-08-19T00:21:21;11.02;;;6.47;;
71236;SDS011;58984;51.960;5.582;2022-08-19T00:23:47;7.55;;;5.90;;
71236;SDS011;58984;51.960;5.582;2022-08-19T00:26:13;9.93;;;6.95;;
71236;SDS011;58984;51.960;5.582;2022-08-19T00:28:38;12.55;;;6.72;;
71236;SDS011;58984;51.960;5.582;2022-08-19T00:31:04;9.02;;;6.18;;
71236;SDS011;58984;51.960;5.582;2022-08-19T00:33:32;9.50;;;6.43;;
71236;SDS011;58984;51.960;5.582;2022-08-19T00:35:59;9.57;;;7.00;;
71236;SDS011;58984;51.960;5.582;2022-08-19T00:38:25;8.25;;;6.38;;
71236;SDS011;58984;51.960;5.582;2022-08-19T00:40:50;8.75;;;7.53;;
71236;SDS011;58984;51.960;5.582;2022-08-19T00:43:18;10.48;;;6.53;;
71236;SDS011;58984;51.960;5.582;2022-08-19T00:45:46;11.93;;;7.10;;
71236;SDS011;58984;51.960;5.582;2022-08-19T00:48:13;10.27;;;7.88;;
71236;SDS011;58984;51.960;5.582;2022-08-19T00:50:40;10.80;;;7.43;;
71236;SDS011;58984;51.960;5.582;2022-08-19T00:53:08;9.95;;;7.53;;
71236;SDS011;58984;51.960;5.582;2022-08-19T00:55:36;10.15;;;7.75;;
71236;SDS011;58984;51.960;5.582;2022-08-19T00:58:05;11.93;;;8.38;;
71236;SDS011;58984;51.960;5.582;2022-08-19T01:03:06;10.20;;;6.85;;
71236;SDS011;58984;51.960;5.582;2022-08-19T01:08:00;11.57;;;7.85;;
71236;SDS011;58984;51.960;5.582;2022-08-19T01:10:29;9.73;;;8.02;;
71236;SDS011;58984;51.960;5.582;2022-08-19T01:12:57;14.82;;;8.45;;
71236;SDS011;58984;51.960;5.582;2022-08-19T01:15:25;10.32;;;7.65;;
71236;SDS011;58984;51.960;5.582;2022-08-19T01:17:55;11.82;;;8.38;;
71236;SDS011;58984;51.960;5.582;2022-08-19T01:20:22;12.38;;;8.13;;
71236;SDS011;58984;51.960;5.582;2022-08-19T01:22:49;10.20;;;7.25;;
71236;SDS011;58984;51.960;5.582;2022-08-19T01:25:22;10.95;;;7.82;;
71236;SDS011;58984;51.960;5.582;2022-08-19T01:28:16;11.25;;;7.82;;
71236;SDS011;58984;51.960;5.582;2022-08-19T01:30:47;9.98;;;7.45;;
71236;SDS011;58984;51.960;5.582;2022-08-19T01:33:13;11.23;;;7.28;;
71236;SDS011;58984;51.960;5.582;2022-08-19T01:35:40;12.65;;;7.57;;
71236;SDS011;58984;51.960;5.582;2022-08-19T01:38:08;11.90;;;7.18;;
71236;SDS011;58984;51.960;5.582;2022-08-19T01:40:43;9.38;;;6.47;;
71236;SDS011;58984;51.960;5.582;2022-08-19T01:43:09;13.40;;;8.32;;
71236;SDS011;58984;51.960;5.582;2022-08-19T01:45:35;11.00;;;6.78;;
71236;SDS011;58984;51.960;5.582;2022-08-19T01:48:03;10.18;;;6.80;;
71236;SDS011;58984;51.960;5.582;2022-08-19T01:50:30;9.60;;;7.05;;
71236;SDS011;58984;51.960;5.582;2022-08-19T01:52:57;9.75;;;6.60;;
71236;SDS011;58984;51.960;5.582;2022-08-19T01:55:24;11.80;;;6.53;;
71236;SDS011;58984;51.960;5.582;2022-08-19T01:57:52;8.50;;;6.43;;
71236;SDS011;58984;51.960;5.582;2022-08-19T02:00:23;8.23;;;6.38;;
71236;SDS011;58984;51.960;5.582;2022-08-19T02:02:52;8.18;;;6.15;;
71236;SDS011;58984;51.960;5.582;2022-08-19T02:05:17;9.63;;;6.75;;
71236;SDS011;58984;51.960;5.582;2022-08-19T02:07:45;9.55;;;6.50;;
71236;SDS011;58984;51.960;5.582;2022-08-19T02:10:12;8.98;;;6.40;;
71236;SDS011;58984;51.960;5.582;2022-08-19T02:12:40;9.48;;;6.60;;
71236;SDS011;58984;51.960;5.582;2022-08-19T02:15:06;8.38;;;6.25;;
71236;SDS011;58984;51.960;5.582;2022-08-19T02:17:33;8.80;;;6.35;;
71236;SDS011;58984;51.960;5.582;2022-08-19T02:20:01;10.25;;;6.50;;
71236;SDS011;58984;51.960;5.582;2022-08-19T02:22:27;8.73;;;6.47;;
71236;SDS011;58984;51.960;5.582;2022-08-19T02:24:54;11.10;;;6.30;;
71236;SDS011;58984;51.960;5.582;2022-08-19T02:27:20;12.82;;;6.97;;
71236;SDS011;58984;51.960;5.582;2022-08-19T02:29:47;10.27;;;6.60;;
71236;SDS011;58984;51.960;5.582;2022-08-19T02:32:14;8.65;;;6.55;;
71236;SDS011;58984;51.960;5.582;2022-08-19T02:34:41;8.18;;;6.32;;
71236;SDS011;58984;51.960;5.582;2022-08-19T02:37:07;9.35;;;6.70;;
71236;SDS011;58984;51.960;5.582;2022-08-19T02:39:55;10.82;;;7.15;;
71236;SDS011;58984;51.960;5.582;2022-08-19T02:42:21;7.45;;;6.28;;
71236;SDS011;58984;51.960;5.582;2022-08-19T02:44:46;8.82;;;6.63;;
71236;SDS011;58984;51.960;5.582;2022-08-19T02:47:12;11.25;;;7.05;;
71236;SDS011;58984;51.960;5.582;2022-08-19T02:49:39;11.07;;;6.68;;
71236;SDS011;58984;51.960;5.582;2022-08-19T02:52:05;10.38;;;6.93;;
71236;SDS011;58984;51.960;5.582;2022-08-19T02:54:31;8.70;;;6.63;;
71236;SDS011;58984;51.960;5.582;2022-08-19T02:56:57;9.55;;;6.55;;
71236;SDS011;58984;51.960;5.582;2022-08-19T02:59:23;11.73;;;7.07;;
71236;SDS011;58984;51.960;5.582;2022-08-19T03:01:50;10.60;;;7.22;;
71236;SDS011;58984;51.960;5.582;2022-08-19T03:04:16;9.52;;;6.68;;
71236;SDS011;58984;51.960;5.582;2022-08-19T03:06:42;11.27;;;6.53;;
71236;SDS011;58984;51.960;5.582;2022-08-19T03:09:10;9.15;;;6.13;;
71236;SDS011;58984;51.960;5.582;2022-08-19T03:11:36;10.90;;;7.43;;
71236;SDS011;58984;51.960;5.582;2022-08-19T03:14:03;10.80;;;7.53;;
71236;SDS011;58984;51.960;5.582;2022-08-19T03:16:32;9.57;;;7.32;;
71236;SDS011;58984;51.960;5.582;2022-08-19T03:19:00;10.63;;;6.80;;
71236;SDS011;58984;51.960;5.582;2022-08-19T03:21:28;8.80;;;6.40;;
71236;SDS011;58984;51.960;5.582;2022-08-19T03:23:56;12.00;;;7.35;;
71236;SDS011;58984;51.960;5.582;2022-08-19T03:26:23;9.82;;;7.25;;
71236;SDS011;58984;51.960;5.582;2022-08-19T03:28:48;10.63;;;7.07;;
71236;SDS011;58984;51.960;5.582;2022-08-19T03:31:16;9.15;;;6.93;;
71236;SDS011;58984;51.960;5.582;2022-08-19T03:33:44;8.38;;;6.78;;
71236;SDS011;58984;51.960;5.582;2022-08-19T03:38:41;10.93;;;7.43;;
71236;SDS011;58984;51.960;5.582;2022-08-19T03:41:23;8.27;;;6.80;;
71236;SDS011;58984;51.960;5.582;2022-08-19T03:43:51;9.02;;;6.45;;
71236;SDS011;58984;51.960;5.582;2022-08-19T03:46:22;11.00;;;7.15;;
71236;SDS011;58984;51.960;5.582;2022-08-19T03:48:51;8.70;;;6.43;;
71236;SDS011;58984;51.960;5.582;2022-08-19T03:51:22;11.82;;;7.28;;
71236;SDS011;58984;51.960;5.582;2022-08-19T03:53:50;10.55;;;7.18;;
71236;SDS011;58984;51.960;5.582;2022-08-19T03:56:17;13.10;;;8.02;;
71236;SDS011;58984;51.960;5.582;2022-08-19T03:58:43;11.75;;;7.57;;
71236;SDS011;58984;51.960;5.582;2022-08-19T04:01:11;14.07;;;8.05;;
71236;SDS011;58984;51.960;5.582;2022-08-19T04:03:39;9.88;;;7.25;;
71236;SDS011;58984;51.960;5.582;2022-08-19T04:06:09;10.35;;;7.80;;
71236;SDS011;58984;51.960;5.582;2022-08-19T04:08:38;11.05;;;8.00;;
71236;SDS011;58984;51.960;5.582;2022-08-19T04:11:11;11.73;;;7.55;;
71236;SDS011;58984;51.960;5.582;2022-08-19T04:13:39;13.65;;;8.27;;
71236;SDS011;58984;51.960;5.582;2022-08-19T04:16:06;10.75;;;8.07;;
71236;SDS011;58984;51.960;5.582;2022-08-19T04:18:35;11.68;;;8.20;;
71236;SDS011;58984;51.960;5.582;2022-08-19T04:21:02;11.43;;;8.30;;
71236;SDS011;58984;51.960;5.582;2022-08-19T04:23:29;14.02;;;8.15;;
71236;SDS011;58984;51.960;5.582;2022-08-19T04:25:55;11.15;;;7.43;;
71236;SDS011;58984;51.960;5.582;2022-08-19T04:28:21;12.23;;;8.10;;
71236;SDS011;58984;51.960;5.582;2022-08-19T04:30:49;16.80;;;9.13;;
71236;SDS011;58984;51.960;5.582;2022-08-19T04:33:17;12.18;;;7.88;;
71236;SDS011;58984;51.960;5.582;2022-08-19T04:35:46;14.27;;;8.40;;
71236;SDS011;58984;51.960;5.582;2022-08-19T04:38:13;12.77;;;8.23;;
71236;SDS011;58984;51.960;5.582;2022-08-19T04:40:44;16.98;;;9.65;;
71236;SDS011;58984;51.960;5.582;2022-08-19T04:46:04;14.98;;;8.38;;
71236;SDS011;58984;51.960;5.582;2022-08-19T04:48:34;13.20;;;8.75;;
71236;SDS011;58984;51.960;5.582;2022-08-19T04:51:00;14.48;;;9.05;;
71236;SDS011;58984;51.960;5.582;2022-08-19T04:53:32;13.77;;;9.70;;
71236;SDS011;58984;51.960;5.582;2022-08-19T04:56:03;16.63;;;9.00;;
71236;SDS011;58984;51.960;5.582;2022-08-19T04:58:33;15.27;;;8.85;;
71236;SDS011;58984;51.960;5.582;2022-08-19T05:01:01;12.10;;;8.15;;
71236;SDS011;58984;51.960;5.582;2022-08-19T05:03:26;12.95;;;8.57;;
71236;SDS011;58984;51.960;5.582;2022-08-19T05:05:52;13.13;;;9.05;;
71236;SDS011;58984;51.960;5.582;2022-08-19T05:08:19;14.88;;;9.48;;
71236;SDS011;58984;51.960;5.582;2022-08-19T05:10:47;14.32;;;8.50;;
71236;SDS011;58984;51.960;5.582;2022-08-19T05:13:15;14.15;;;9.00;;
71236;SDS011;58984;51.960;5.582;2022-08-19T05:15:42;12.40;;;8.65;;
71236;SDS011;58984;51.960;5.582;2022-08-19T05:18:09;15.45;;;9.02;;
71236;SDS011;58984;51.960;5.582;2022-08-19T05:20:54;14.63;;;10.00;;
71236;SDS011;58984;51.960;5.582;2022-08-19T05:23:38;15.05;;;9.70;;
71236;SDS011;58984;51.960;5.582;2022-08-19T05:26:04;14.73;;;9.68;;
71236;SDS011;58984;51.960;5.582;2022-08-19T05:28:30;17.05;;;9.95;;
71236;SDS011;58984;51.960;5.582;2022-08-19T05:30:55;20.02;;;10.63;;
71236;SDS011;58984;51.960;5.582;2022-08-19T05:33:21;16.85;;;11.32;;
71236;SDS011;58984;51.960;5.582;2022-08-19T05:35:48;14.13;;;9.88;;
71236;SDS011;58984;51.960;5.582;2022-08-19T05:38:14;16.38;;;10.32;;
71236;SDS011;58984;51.960;5.582;2022-08-19T05:40:44;15.20;;;9.95;;
71236;SDS011;58984;51.960;5.582;2022-08-19T05:43:12;17.73;;;10.25;;
71236;SDS011;58984;51.960;5.582;2022-08-19T05:45:41;14.40;;;9.13;;
71236;SDS011;58984;51.960;5.582;2022-08-19T05:48:08;17.00;;;9.82;;
71236;SDS011;58984;51.960;5.582;2022-08-19T05:50:38;13.32;;;9.63;;
71236;SDS011;58984;51.960;5.582;2022-08-19T05:53:05;14.13;;;9.50;;
71236;SDS011;58984;51.960;5.582;2022-08-19T05:55:31;14.20;;;9.30;;
71236;SDS011;58984;51.960;5.582;2022-08-19T05:57:57;15.98;;;9.65;;
71236;SDS011;58984;51.960;5.582;2022-08-19T06:00:22;18.73;;;11.18;;
71236;SDS011;58984;51.960;5.582;2022-08-19T06:02:48;15.50;;;9.80;;
71236;SDS011;58984;51.960;5.582;2022-08-19T06:05:15;16.58;;;10.68;;
71236;SDS011;58984;51.960;5.582;2022-08-19T06:07:41;19.70;;;10.52;;
71236;SDS011;58984;51.960;5.582;2022-08-19T06:10:07;15.85;;;9.93;;
71236;SDS011;58984;51.960;5.582;2022-08-19T06:12:35;16.55;;;10.48;;
71236;SDS011;58984;51.960;5.582;2022-08-19T06:15:08;17.58;;;11.18;;
71236;SDS011;58984;51.960;5.582;2022-08-19T06:17:36;16.92;;;10.55;;
71236;SDS011;58984;51.960;5.582;2022-08-19T06:20:06;16.48;;;11.15;;
71236;SDS011;58984;51.960;5.582;2022-08-19T06:22:38;19.55;;;12.85;;
71236;SDS011;58984;51.960;5.582;2022-08-19T06:25:05;22.80;;;12.57;;
71236;SDS011;58984;51.960;5.582;2022-08-19T06:27:31;22.63;;;12.65;;
71236;SDS011;58984;51.960;5.582;2022-08-19T06:29:58;26.42;;;15.15;;
71236;SDS011;58984;51.960;5.582;2022-08-19T06:32:23;22.20;;;13.60;;
71236;SDS011;58984;51.960;5.582;2022-08-19T06:34:49;23.80;;;14.50;;
71236;SDS011;58984;51.960;5.582;2022-08-19T06:37:15;27.67;;;16.02;;
71236;SDS011;58984;51.960;5.582;2022-08-19T06:39:42;25.60;;;16.60;;
71236;SDS011;58984;51.960;5.582;2022-08-19T06:42:08;27.17;;;15.82;;
71236;SDS011;58984;51.960;5.582;2022-08-19T06:44:36;32.40;;;17.23;;
71236;SDS011;58984;51.960;5.582;2022-08-19T06:47:06;34.65;;;18.48;;
71236;SDS011;58984;51.960;5.582;2022-08-19T06:49:34;36.90;;;18.90;;
71236;SDS011;58984;51.960;5.582;2022-08-19T06:52:00;35.03;;;20.55;;
71236;SDS011;58984;51.960;5.582;2022-08-19T06:54:27;33.60;;;20.92;;
71236;SDS011;58984;51.960;5.582;2022-08-19T06:56:54;37.40;;;21.30;;
71236;SDS011;58984;51.960;5.582;2022-08-19T06:59:22;38.25;;;21.10;;
71236;SDS011;58984;51.960;5.582;2022-08-19T07:01:53;44.42;;;23.08;;
71236;SDS011;58984;51.960;5.582;2022-08-19T07:04:24;43.58;;;23.23;;
71236;SDS011;58984;51.960;5.582;2022-08-19T07:06:59;47.70;;;24.02;;
71236;SDS011;58984;51.960;5.582;2022-08-19T07:09:32;46.53;;;24.65;;
71236;SDS011;58984;51.960;5.582;2022-08-19T07:11:58;50.30;;;26.75;;
71236;SDS011;58984;51.960;5.582;2022-08-19T07:14:24;49.97;;;26.42;;
71236;SDS011;58984;51.960;5.582;2022-08-19T07:16:52;55.97;;;28.58;;
71236;SDS011;58984;51.960;5.582;2022-08-19T07:19:20;50.88;;;27.90;;
71236;SDS011;58984;51.960;5.582;2022-08-19T07:21:47;49.30;;;27.30;;
71236;SDS011;58984;51.960;5.582;2022-08-19T07:24:14;52.65;;;27.45;;
71236;SDS011;58984;51.960;5.582;2022-08-19T07:26:42;46.58;;;26.88;;
71236;SDS011;58984;51.960;5.582;2022-08-19T07:29:09;52.55;;;28.30;;
71236;SDS011;58984;51.960;5.582;2022-08-19T07:31:36;47.95;;;27.55;;
71236;SDS011;58984;51.960;5.582;2022-08-19T07:34:06;48.95;;;28.15;;
71236;SDS011;58984;51.960;5.582;2022-08-19T07:36:35;51.28;;;27.45;;
71236;SDS011;58984;51.960;5.582;2022-08-19T07:39:07;49.88;;;27.95;;
71236;SDS011;58984;51.960;5.582;2022-08-19T07:41:36;54.95;;;30.38;;
71236;SDS011;58984;51.960;5.582;2022-08-19T07:44:03;57.95;;;30.23;;
71236;SDS011;58984;51.960;5.582;2022-08-19T07:46:33;55.78;;;30.25;;
71236;SDS011;58984;51.960;5.582;2022-08-19T07:49:00;61.83;;;30.48;;
71236;SDS011;58984;51.960;5.582;2022-08-19T07:51:26;63.95;;;32.33;;
71236;SDS011;58984;51.960;5.582;2022-08-19T07:53:53;57.22;;;31.65;;
71236;SDS011;58984;51.960;5.582;2022-08-19T07:56:19;58.92;;;31.02;;
71236;SDS011;58984;51.960;5.582;2022-08-19T07:58:46;55.63;;;30.98;;
71236;SDS011;58984;51.960;5.582;2022-08-19T08:01:15;58.88;;;32.08;;
71236;SDS011;58984;51.960;5.582;2022-08-19T08:03:42;57.80;;;30.85;;
71236;SDS011;58984;51.960;5.582;2022-08-19T08:06:26;61.55;;;30.48;;
71236;SDS011;58984;51.960;5.582;2022-08-19T08:09:12;55.53;;;29.38;;
71236;SDS011;58984;51.960;5.582;2022-08-19T08:11:47;51.78;;;28.77;;
71236;SDS011;58984;51.960;5.582;2022-08-19T08:14:26;52.80;;;29.83;;
71236;SDS011;58984;51.960;5.582;2022-08-19T08:16:55;54.08;;;28.30;;
71236;SDS011;58984;51.960;5.582;2022-08-19T08:19:22;50.78;;;27.38;;
71236;SDS011;58984;51.960;5.582;2022-08-19T08:21:50;43.95;;;26.27;;
71236;SDS011;58984;51.960;5.582;2022-08-19T08:24:16;44.90;;;25.85;;
71236;SDS011;58984;51.960;5.582;2022-08-19T08:26:43;40.45;;;23.60;;
71236;SDS011;58984;51.960;5.582;2022-08-19T08:29:13;45.55;;;22.30;;
71236;SDS011;58984;51.960;5.582;2022-08-19T08:31:40;42.00;;;22.80;;
71236;SDS011;58984;51.960;5.582;2022-08-19T08:34:08;37.50;;;20.70;;
71236;SDS011;58984;51.960;5.582;2022-08-19T08:36:39;34.38;;;20.65;;
71236;SDS011;58984;51.960;5.582;2022-08-19T08:39:07;39.33;;;20.42;;
71236;SDS011;58984;51.960;5.582;2022-08-19T08:44:23;40.42;;;20.70;;
71236;SDS011;58984;51.960;5.582;2022-08-19T08:47:04;32.78;;;18.92;;
71236;SDS011;58984;51.960;5.582;2022-08-19T08:49:41;31.45;;;17.50;;
71236;SDS011;58984;51.960;5.582;2022-08-19T08:55:05;29.02;;;17.83;;
71236;SDS011;58984;51.960;5.582;2022-08-19T08:57:36;29.65;;;16.60;;
71236;SDS011;58984;51.960;5.582;2022-08-19T09:00:17;26.75;;;16.63;;
71236;SDS011;58984;51.960;5.582;2022-08-19T09:02:46;28.17;;;15.10;;
71236;SDS011;58984;51.960;5.582;2022-08-19T09:05:12;34.28;;;16.05;;
71236;SDS011;58984;51.960;5.582;2022-08-19T09:10:20;26.13;;;16.15;;
71236;SDS011;58984;51.960;5.582;2022-08-19T09:13:21;25.98;;;16.30;;
71236;SDS011;58984;51.960;5.582;2022-08-19T09:16:06;29.85;;;16.55;;
71236;SDS011;58984;51.960;5.582;2022-08-19T09:18:39;27.25;;;16.30;;
71236;SDS011;58984;51.960;5.582;2022-08-19T09:21:07;25.02;;;14.65;;
71236;SDS011;58984;51.960;5.582;2022-08-19T09:23:33;25.33;;;15.25;;
71236;SDS011;58984;51.960;5.582;2022-08-19T09:26:00;22.50;;;14.05;;
71236;SDS011;58984;51.960;5.582;2022-08-19T09:28:26;22.20;;;13.93;;
71236;SDS011;58984;51.960;5.582;2022-08-19T09:30:52;28.35;;;14.63;;
71236;SDS011;58984;51.960;5.582;2022-08-19T09:33:18;22.58;;;14.35;;
71236;SDS011;58984;51.960;5.582;2022-08-19T09:35:44;26.17;;;14.20;;
71236;SDS011;58984;51.960;5.582;2022-08-19T09:38:11;24.20;;;14.43;;
71236;SDS011;58984;51.960;5.582;2022-08-19T09:40:36;27.52;;;15.10;;
71236;SDS011;58984;51.960;5.582;2022-08-19T09:43:02;26.63;;;14.52;;
71236;SDS011;58984;51.960;5.582;2022-08-19T09:45:28;20.40;;;13.95;;
71236;SDS011;58984;51.960;5.582;2022-08-19T09:47:54;26.60;;;15.05;;
71236;SDS011;58984;51.960;5.582;2022-08-19T09:50:21;26.48;;;15.18;;
71236;SDS011;58984;51.960;5.582;2022-08-19T09:52:48;20.98;;;13.18;;
71236;SDS011;58984;51.960;5.582;2022-08-19T09:55:14;21.50;;;14.00;;
71236;SDS011;58984;51.960;5.582;2022-08-19T09:57:41;18.92;;;13.48;;
71236;SDS011;58984;51.960;5.582;2022-08-19T10:00:07;20.08;;;12.63;;
71236;SDS011;58984;51.960;5.582;2022-08-19T10:02:33;24.63;;;13.55;;
71236;SDS011;58984;51.960;5.582;2022-08-19T10:04:59;24.60;;;13.85;;
71236;SDS011;58984;51.960;5.582;2022-08-19T10:07:44;20.63;;;12.75;;
71236;SDS011;58984;51.960;5.582;2022-08-19T10:10:10;24.83;;;14.18;;
71236;SDS011;58984;51.960;5.582;2022-08-19T10:12:36;34.38;;;19.00;;
71236;SDS011;58984;51.960;5.582;2022-08-19T10:15:01;39.55;;;22.02;;
71236;SDS011;58984;51.960;5.582;2022-08-19T10:17:29;32.83;;;18.38;;
71236;SDS011;58984;51.960;5.582;2022-08-19T10:19:55;36.58;;;18.05;;
71236;SDS011;58984;51.960;5.582;2022-08-19T10:22:20;28.67;;;15.85;;
71236;SDS011;58984;51.960;5.582;2022-08-19T10:24:48;26.73;;;15.35;;
71236;SDS011;58984;51.960;5.582;2022-08-19T10:27:14;28.40;;;14.90;;
71236;SDS011;58984;51.960;5.582;2022-08-19T10:29:40;23.98;;;14.60;;
71236;SDS011;58984;51.960;5.582;2022-08-19T10:32:07;24.33;;;14.23;;
71236;SDS011;58984;51.960;5.582;2022-08-19T10:34:34;22.27;;;13.95;;
71236;SDS011;58984;51.960;5.582;2022-08-19T10:37:01;19.23;;;12.93;;
71236;SDS011;58984;51.960;5.582;2022-08-19T10:39:30;19.92;;;11.50;;
71236;SDS011;58984;51.960;5.582;2022-08-19T10:42:04;21.35;;;12.13;;
71236;SDS011;58984;51.960;5.582;2022-08-19T10:44:31;17.80;;;11.60;;
71236;SDS011;58984;51.960;5.582;2022-08-19T10:47:00;21.75;;;12.05;;
71236;SDS011;58984;51.960;5.582;2022-08-19T10:49:26;23.40;;;12.48;;
71236;SDS011;58984;51.960;5.582;2022-08-19T10:51:52;20.02;;;12.57;;
71236;SDS011;58984;51.960;5.582;2022-08-19T10:54:36;21.30;;;12.60;;
71236;SDS011;58984;51.960;5.582;2022-08-19T10:57:20;22.08;;;12.65;;
71236;SDS011;58984;51.960;5.582;2022-08-19T10:59:49;21.88;;;11.75;;
71236;SDS011;58984;51.960;5.582;2022-08-19T11:02:14;21.08;;;11.82;;
71236;SDS011;58984;51.960;5.582;2022-08-19T11:04:40;17.83;;;11.98;;
71236;SDS011;58984;51.960;5.582;2022-08-19T11:07:06;23.40;;;13.63;;
71236;SDS011;58984;51.960;5.582;2022-08-19T11:09:36;24.42;;;14.10;;
71236;SDS011;58984;51.960;5.582;2022-08-19T11:12:04;24.08;;;13.95;;
71236;SDS011;58984;51.960;5.582;2022-08-19T11:14:30;22.65;;;12.30;;
71236;SDS011;58984;51.960;5.582;2022-08-19T11:16:58;26.58;;;14.10;;
71236;SDS011;58984;51.960;5.582;2022-08-19T11:19:23;18.20;;;11.57;;
71236;SDS011;58984;51.960;5.582;2022-08-19T11:21:50;19.98;;;12.23;;
71236;SDS011;58984;51.960;5.582;2022-08-19T11:24:19;24.58;;;13.30;;
71236;SDS011;58984;51.960;5.582;2022-08-19T11:26:47;16.70;;;12.30;;
71236;SDS011;58984;51.960;5.582;2022-08-19T11:29:17;23.05;;;12.10;;
71236;SDS011;58984;51.960;5.582;2022-08-19T11:31:46;21.20;;;13.13;;
71236;SDS011;58984;51.960;5.582;2022-08-19T11:34:15;21.05;;;12.60;;
71236;SDS011;58984;51.960;5.582;2022-08-19T11:36:47;22.75;;;13.40;;
71236;SDS011;58984;51.960;5.582;2022-08-19T11:39:15;24.17;;;13.68;;
71236;SDS011;58984;51.960;5.582;2022-08-19T11:41:42;29.67;;;16.23;;
71236;SDS011;58984;51.960;5.582;2022-08-19T11:44:07;20.55;;;13.18;;
71236;SDS011;58984;51.960;5.582;2022-08-19T11:46:34;22.63;;;13.70;;
71236;SDS011;58984;51.960;5.582;2022-08-19T11:49:01;20.92;;;12.73;;
71236;SDS011;58984;51.960;5.582;2022-08-19T11:51:28;24.33;;;14.07;;
71236;SDS011;58984;51.960;5.582;2022-08-19T11:53:55;25.83;;;15.13;;
71236;SDS011;58984;51.960;5.582;2022-08-19T11:56:23;22.90;;;15.23;;
71236;SDS011;58984;51.960;5.582;2022-08-19T11:58:50;21.27;;;13.95;;
71236;SDS011;58984;51.960;5.582;2022-08-19T12:01:17;26.52;;;15.30;;
71236;SDS011;58984;51.960;5.582;2022-08-19T12:03:46;24.25;;;14.63;;
71236;SDS011;58984;51.960;5.582;2022-08-19T12:06:19;24.83;;;14.65;;
71236;SDS011;58984;51.960;5.582;2022-08-19T12:08:54;21.77;;;14.13;;
71236;SDS011;58984;51.960;5.582;2022-08-19T12:11:27;21.70;;;14.60;;
71236;SDS011;58984;51.960;5.582;2022-08-19T12:13:53;24.98;;;15.30;;
71236;SDS011;58984;51.960;5.582;2022-08-19T12:16:27;25.50;;;15.95;;
71236;SDS011;58984;51.960;5.582;2022-08-19T12:18:54;28.13;;;15.77;;
71236;SDS011;58984;51.960;5.582;2022-08-19T12:21:21;26.92;;;17.08;;
71236;SDS011;58984;51.960;5.582;2022-08-19T12:23:50;28.77;;;16.55;;
71236;SDS011;58984;51.960;5.582;2022-08-19T12:26:16;24.27;;;15.30;;
71236;SDS011;58984;51.960;5.582;2022-08-19T12:28:42;22.20;;;15.07;;
71236;SDS011;58984;51.960;5.582;2022-08-19T12:31:08;23.35;;;14.65;;
71236;SDS011;58984;51.960;5.582;2022-08-19T12:33:36;25.30;;;16.50;;
71236;SDS011;58984;51.960;5.582;2022-08-19T12:36:04;24.90;;;16.60;;
71236;SDS011;58984;51.960;5.582;2022-08-19T12:38:32;22.90;;;15.27;;
71236;SDS011;58984;51.960;5.582;2022-08-19T12:40:59;23.10;;;14.93;;
71236;SDS011;58984;51.960;5.582;2022-08-19T12:43:25;24.67;;;15.18;;
71236;SDS011;58984;51.960;5.582;2022-08-19T12:45:51;21.20;;;13.52;;
71236;SDS011;58984;51.960;5.582;2022-08-19T12:48:17;21.55;;;14.85;;
71236;SDS011;58984;51.960;5.582;2022-08-19T12:50:43;21.50;;;13.82;;
71236;SDS011;58984;51.960;5.582;2022-08-19T12:53:13;20.25;;;14.40;;
71236;SDS011;58984;51.960;5.582;2022-08-19T12:55:39;19.58;;;13.02;;
71236;SDS011;58984;51.960;5.582;2022-08-19T12:58:05;17.67;;;12.07;;
71236;SDS011;58984;51.960;5.582;2022-08-19T13:00:31;16.85;;;12.85;;
71236;SDS011;58984;51.960;5.582;2022-08-19T13:02:58;21.73;;;13.13;;
71236;SDS011;58984;51.960;5.582;2022-08-19T13:05:26;19.88;;;12.13;;
71236;SDS011;58984;51.960;5.582;2022-08-19T13:07:54;19.58;;;13.15;;
71236;SDS011;58984;51.960;5.582;2022-08-19T13:10:22;22.58;;;13.73;;
71236;SDS011;58984;51.960;5.582;2022-08-19T13:12:52;20.48;;;14.45;;
71236;SDS011;58984;51.960;5.582;2022-08-19T13:15:19;20.75;;;14.32;;
71236;SDS011;58984;51.960;5.582;2022-08-19T13:17:46;20.00;;;13.20;;
71236;SDS011;58984;51.960;5.582;2022-08-19T13:20:16;21.90;;;14.40;;
71236;SDS011;58984;51.960;5.582;2022-08-19T13:22:44;36.30;;;19.73;;
71236;SDS011;58984;51.960;5.582;2022-08-19T13:25:10;25.38;;;16.50;;
71236;SDS011;58984;51.960;5.582;2022-08-19T13:27:37;23.35;;;15.57;;
71236;SDS011;58984;51.960;5.582;2022-08-19T13:30:05;25.10;;;15.43;;
71236;SDS011;58984;51.960;5.582;2022-08-19T13:32:51;25.92;;;16.20;;
71236;SDS011;58984;51.960;5.582;2022-08-19T13:35:35;21.95;;;14.20;;
71236;SDS011;58984;51.960;5.582;2022-08-19T13:38:01;23.38;;;14.98;;
71236;SDS011;58984;51.960;5.582;2022-08-19T13:40:29;23.00;;;14.05;;
71236;SDS011;58984;51.960;5.582;2022-08-19T13:42:56;23.40;;;14.75;;
71236;SDS011;58984;51.960;5.582;2022-08-19T13:45:23;21.73;;;13.50;;
71236;SDS011;58984;51.960;5.582;2022-08-19T13:47:50;17.50;;;12.27;;
71236;SDS011;58984;51.960;5.582;2022-08-19T13:50:20;20.00;;;12.05;;
71236;SDS011;58984;51.960;5.582;2022-08-19T13:52:48;18.45;;;12.00;;
71236;SDS011;58984;51.960;5.582;2022-08-19T13:55:14;14.68;;;10.98;;
71236;SDS011;58984;51.960;5.582;2022-08-19T13:57:40;14.82;;;10.60;;
71236;SDS011;58984;51.960;5.582;2022-08-19T14:00:11;16.33;;;10.80;;
71236;SDS011;58984;51.960;5.582;2022-08-19T14:02:42;17.42;;;10.05;;
71236;SDS011;58984;51.960;5.582;2022-08-19T14:05:09;12.13;;;8.77;;
71236;SDS011;58984;51.960;5.582;2022-08-19T14:07:36;14.52;;;9.20;;
71236;SDS011;58984;51.960;5.582;2022-08-19T14:10:05;12.35;;;7.80;;
71236;SDS011;58984;51.960;5.582;2022-08-19T14:12:33;11.57;;;7.37;;
71236;SDS011;58984;51.960;5.582;2022-08-19T14:14:59;13.13;;;7.60;;
71236;SDS011;58984;51.960;5.582;2022-08-19T14:17:25;11.30;;;7.15;;
71236;SDS011;58984;51.960;5.582;2022-08-19T14:19:58;9.23;;;5.93;;
71236;SDS011;58984;51.960;5.582;2022-08-19T14:22:27;11.88;;;6.65;;
71236;SDS011;58984;51.960;5.582;2022-08-19T14:24:53;9.35;;;6.13;;
71236;SDS011;58984;51.960;5.582;2022-08-19T14:27:19;9.20;;;6.25;;
71236;SDS011;58984;51.960;5.582;2022-08-19T14:29:44;10.52;;;6.40;;
71236;SDS011;58984;51.960;5.582;2022-08-19T14:32:10;8.57;;;5.90;;
71236;SDS011;58984;51.960;5.582;2022-08-19T14:34:37;9.65;;;6.22;;
71236;SDS011;58984;51.960;5.582;2022-08-19T14:37:02;8.77;;;5.25;;
71236;SDS011;58984;51.960;5.582;2022-08-19T14:39:28;12.73;;;5.65;;
71236;SDS011;58984;51.960;5.582;2022-08-19T14:41:54;9.32;;;4.90;;
71236;SDS011;58984;51.960;5.582;2022-08-19T14:44:19;7.70;;;4.68;;
71236;SDS011;58984;51.960;5.582;2022-08-19T14:46:45;7.28;;;4.90;;
71236;SDS011;58984;51.960;5.582;2022-08-19T14:49:10;6.45;;;4.32;;
71236;SDS011;58984;51.960;5.582;2022-08-19T14:51:37;6.97;;;4.40;;
71236;SDS011;58984;51.960;5.582;2022-08-19T14:54:03;9.60;;;4.88;;